sensor_id;sensor_type;location;lat;lon;timestamp;P1;durP1;ratioP1;P2;durP2;ratioP2
71366;SDS011;60030;52.274;8.040;2022-08-25T00:01:54;3.92;;;2.45;;
71366;SDS011;60030;52.274;8.040;2022-08-25T00:04:23;4.43;;;2.08;;
71366;SDS011;60030;52.274;8.040;2022-08-25T00:06:51;5.55;;;2.63;;
71366;SDS011;60030;52.274;8.040;2022-08-25T00:09:20;5.65;;;2.30;;
71366;SDS011;60030;52.274;8.040;2022-08-25T00:11:49;3.58;;;2.55;;
71366;SDS011;60030;52.274;8.040;2022-08-25T00:14:18;2.88;;;2.30;;
71366;SDS011;60030;52.274;8.040;2022-08-25T00:16:47;3.28;;;2.00;;
71366;SDS011;60030;52.274;8.040;2022-08-25T00:19:15;3.92;;;2.58;;
71366;SDS011;60030;52.274;8.040;2022-08-25T00:21:45;2.42;;;2.10;;
71366;SDS011;60030;52.274;8.040;2022-08-25T00:24:13;3.25;;;2.22;;
71366;SDS011;60030;52.274;8.040;2022-08-25T00:26:42;3.60;;;1.90;;
71366;SDS011;60030;52.274;8.040;2022-08-25T00:29:11;7.93;;;2.40;;
71366;SDS011;60030;52.274;8.040;2022-08-25T00:31:40;2.70;;;1.92;;
71366;SDS011;60030;52.274;8.040;2022-08-25T00:34:08;3.47;;;2.80;;
71366;SDS011;60030;52.274;8.040;2022-08-25T00:36:38;2.90;;;2.60;;
71366;SDS011;60030;52.274;8.040;2022-08-25T00:39:06;3.53;;;2.22;;
71366;SDS011;60030;52.274;8.040;2022-08-25T00:41:35;3.38;;;2.25;;
71366;SDS011;60030;52.274;8.040;2022-08-25T00:44:04;3.72;;;2.15;;
71366;SDS011;60030;52.274;8.040;2022-08-25T00:46:39;2.80;;;2.45;;
71366;SDS011;60030;52.274;8.040;2022-08-25T00:49:10;5.88;;;2.53;;
71366;SDS011;60030;52.274;8.040;2022-08-25T00:51:42;6.00;;;2.80;;
71366;SDS011;60030;52.274;8.040;2022-08-25T00:54:14;3.05;;;2.28;;
71366;SDS011;60030;52.274;8.040;2022-08-25T00:56:43;5.03;;;2.45;;
71366;SDS011;60030;52.274;8.040;2022-08-25T00:59:11;5.43;;;2.15;;
71366;SDS011;60030;52.274;8.040;2022-08-25T01:01:41;4.63;;;2.20;;
71366;SDS011;60030;52.274;8.040;2022-08-25T01:04:08;2.40;;;2.20;;
71366;SDS011;60030;52.274;8.040;2022-08-25T01:06:35;3.70;;;2.40;;
71366;SDS011;60030;52.274;8.040;2022-08-25T01:09:07;5.78;;;2.10;;
71366;SDS011;60030;52.274;8.040;2022-08-25T01:11:35;2.85;;;2.38;;
71366;SDS011;60030;52.274;8.040;2022-08-25T01:14:03;3.90;;;2.10;;
71366;SDS011;60030;52.274;8.040;2022-08-25T01:16:31;5.75;;;2.10;;
71366;SDS011;60030;52.274;8.040;2022-08-25T01:19:01;5.38;;;2.47;;
71366;SDS011;60030;52.274;8.040;2022-08-25T01:21:31;6.55;;;2.45;;
71366;SDS011;60030;52.274;8.040;2022-08-25T01:24:34;4.32;;;2.42;;
71366;SDS011;60030;52.274;8.040;2022-08-25T01:27:06;3.17;;;2.28;;
71366;SDS011;60030;52.274;8.040;2022-08-25T01:29:35;5.47;;;2.80;;
71366;SDS011;60030;52.274;8.040;2022-08-25T01:37:58;3.08;;;2.00;;
71366;SDS011;60030;52.274;8.040;2022-08-25T01:40:25;6.82;;;2.58;;
71366;SDS011;60030;52.274;8.040;2022-08-25T01:43:11;6.18;;;2.22;;
71366;SDS011;60030;52.274;8.040;2022-08-25T01:46:12;5.50;;;2.25;;
71366;SDS011;60030;52.274;8.040;2022-08-25T01:48:39;5.72;;;2.75;;
71366;SDS011;60030;52.274;8.040;2022-08-25T01:51:15;4.20;;;2.55;;
71366;SDS011;60030;52.274;8.040;2022-08-25T01:53:56;6.38;;;2.58;;
71366;SDS011;60030;52.274;8.040;2022-08-25T02:00:26;4.70;;;2.17;;
71366;SDS011;60030;52.274;8.040;2022-08-25T02:02:53;4.40;;;2.53;;
71366;SDS011;60030;52.274;8.040;2022-08-25T02:05:20;3.63;;;2.50;;
71366;SDS011;60030;52.274;8.040;2022-08-25T02:07:47;4.10;;;2.38;;
71366;SDS011;60030;52.274;8.040;2022-08-25T02:10:15;7.10;;;2.10;;
71366;SDS011;60030;52.274;8.040;2022-08-25T02:12:43;3.25;;;2.13;;
71366;SDS011;60030;52.274;8.040;2022-08-25T02:15:10;3.45;;;2.28;;
71366;SDS011;60030;52.274;8.040;2022-08-25T02:18:16;5.95;;;2.83;;
71366;SDS011;60030;52.274;8.040;2022-08-25T02:20:43;3.70;;;2.47;;
71366;SDS011;60030;52.274;8.040;2022-08-25T02:23:29;4.82;;;2.38;;
71366;SDS011;60030;52.274;8.040;2022-08-25T02:25:57;4.30;;;2.78;;
71366;SDS011;60030;52.274;8.040;2022-08-25T02:28:24;3.70;;;2.22;;
71366;SDS011;60030;52.274;8.040;2022-08-25T02:30:51;4.20;;;2.55;;
71366;SDS011;60030;52.274;8.040;2022-08-25T02:33:19;5.28;;;2.38;;
71366;SDS011;60030;52.274;8.040;2022-08-25T02:35:46;5.20;;;2.67;;
71366;SDS011;60030;52.274;8.040;2022-08-25T02:38:13;3.88;;;2.45;;
71366;SDS011;60030;52.274;8.040;2022-08-25T02:40:40;5.07;;;2.47;;
71366;SDS011;60030;52.274;8.040;2022-08-25T02:43:09;6.97;;;2.55;;
71366;SDS011;60030;52.274;8.040;2022-08-25T02:45:36;3.63;;;2.28;;
71366;SDS011;60030;52.274;8.040;2022-08-25T02:48:03;4.28;;;2.30;;
71366;SDS011;60030;52.274;8.040;2022-08-25T02:50:30;4.82;;;2.28;;
71366;SDS011;60030;52.274;8.040;2022-08-25T02:52:57;4.53;;;2.50;;
71366;SDS011;60030;52.274;8.040;2022-08-25T02:55:24;3.38;;;2.55;;
71366;SDS011;60030;52.274;8.040;2022-08-25T02:57:52;3.35;;;2.40;;
71366;SDS011;60030;52.274;8.040;2022-08-25T03:00:20;6.20;;;2.75;;
71366;SDS011;60030;52.274;8.040;2022-08-25T03:02:47;5.45;;;2.15;;
71366;SDS011;60030;52.274;8.040;2022-08-25T03:05:15;3.83;;;2.17;;
71366;SDS011;60030;52.274;8.040;2022-08-25T03:07:42;4.03;;;2.38;;
71366;SDS011;60030;52.274;8.040;2022-08-25T03:10:11;4.40;;;2.40;;
71366;SDS011;60030;52.274;8.040;2022-08-25T03:12:40;2.40;;;2.00;;
71366;SDS011;60030;52.274;8.040;2022-08-25T03:15:08;5.30;;;2.55;;
71366;SDS011;60030;52.274;8.040;2022-08-25T03:17:37;3.30;;;2.40;;
71366;SDS011;60030;52.274;8.040;2022-08-25T03:20:05;4.28;;;2.85;;
71366;SDS011;60030;52.274;8.040;2022-08-25T03:22:32;5.28;;;2.45;;
71366;SDS011;60030;52.274;8.040;2022-08-25T03:24:59;3.92;;;2.70;;
71366;SDS011;60030;52.274;8.040;2022-08-25T03:27:40;4.13;;;2.50;;
71366;SDS011;60030;52.274;8.040;2022-08-25T03:30:08;2.97;;;2.42;;
71366;SDS011;60030;52.274;8.040;2022-08-25T03:32:37;3.92;;;2.40;;
71366;SDS011;60030;52.274;8.040;2022-08-25T03:35:05;7.18;;;3.25;;
71366;SDS011;60030;52.274;8.040;2022-08-25T03:37:32;5.15;;;2.60;;
71366;SDS011;60030;52.274;8.040;2022-08-25T03:40:00;4.47;;;2.67;;
71366;SDS011;60030;52.274;8.040;2022-08-25T03:42:27;4.85;;;2.50;;
71366;SDS011;60030;52.274;8.040;2022-08-25T03:44:54;4.40;;;2.50;;
71366;SDS011;60030;52.274;8.040;2022-08-25T03:47:21;5.10;;;2.47;;
71366;SDS011;60030;52.274;8.040;2022-08-25T03:49:52;5.85;;;2.90;;
71366;SDS011;60030;52.274;8.040;2022-08-25T03:52:19;4.57;;;2.70;;
71366;SDS011;60030;52.274;8.040;2022-08-25T03:54:46;3.85;;;2.53;;
71366;SDS011;60030;52.274;8.040;2022-08-25T03:57:13;4.57;;;2.78;;
71366;SDS011;60030;52.274;8.040;2022-08-25T03:59:40;4.72;;;2.65;;
71366;SDS011;60030;52.274;8.040;2022-08-25T04:02:07;4.00;;;2.78;;
71366;SDS011;60030;52.274;8.040;2022-08-25T04:04:34;4.47;;;2.55;;
71366;SDS011;60030;52.274;8.040;2022-08-25T04:07:03;3.92;;;2.33;;
71366;SDS011;60030;52.274;8.040;2022-08-25T04:09:30;8.88;;;2.92;;
71366;SDS011;60030;52.274;8.040;2022-08-25T04:11:57;4.32;;;3.00;;
71366;SDS011;60030;52.274;8.040;2022-08-25T04:14:24;7.13;;;2.67;;
71366;SDS011;60030;52.274;8.040;2022-08-25T04:16:51;5.95;;;2.95;;
71366;SDS011;60030;52.274;8.040;2022-08-25T04:19:19;5.80;;;2.65;;
71366;SDS011;60030;52.274;8.040;2022-08-25T04:21:46;5.30;;;2.78;;
71366;SDS011;60030;52.274;8.040;2022-08-25T04:24:15;4.38;;;2.72;;
71366;SDS011;60030;52.274;8.040;2022-08-25T04:26:44;5.05;;;2.90;;
71366;SDS011;60030;52.274;8.040;2022-08-25T04:29:13;3.90;;;3.08;;
71366;SDS011;60030;52.274;8.040;2022-08-25T04:31:43;4.88;;;3.03;;
71366;SDS011;60030;52.274;8.040;2022-08-25T04:34:12;3.17;;;2.65;;
71366;SDS011;60030;52.274;8.040;2022-08-25T04:36:39;4.45;;;2.67;;
71366;SDS011;60030;52.274;8.040;2022-08-25T04:39:06;4.20;;;2.67;;
71366;SDS011;60030;52.274;8.040;2022-08-25T04:41:34;5.25;;;2.97;;
71366;SDS011;60030;52.274;8.040;2022-08-25T04:44:02;4.05;;;2.75;;
71366;SDS011;60030;52.274;8.040;2022-08-25T04:46:30;5.90;;;2.97;;
71366;SDS011;60030;52.274;8.040;2022-08-25T04:49:01;4.13;;;2.70;;
71366;SDS011;60030;52.274;8.040;2022-08-25T04:51:29;9.55;;;3.08;;
71366;SDS011;60030;52.274;8.040;2022-08-25T04:54:00;13.95;;;3.20;;
71366;SDS011;60030;52.274;8.040;2022-08-25T04:56:30;7.70;;;2.95;;
71366;SDS011;60030;52.274;8.040;2022-08-25T04:59:02;5.47;;;3.58;;
71366;SDS011;60030;52.274;8.040;2022-08-25T05:01:30;4.95;;;3.47;;
71366;SDS011;60030;52.274;8.040;2022-08-25T05:03:59;3.70;;;3.03;;
71366;SDS011;60030;52.274;8.040;2022-08-25T05:06:27;4.38;;;2.70;;
71366;SDS011;60030;52.274;8.040;2022-08-25T05:08:55;8.93;;;3.20;;
71366;SDS011;60030;52.274;8.040;2022-08-25T05:11:24;5.35;;;2.45;;
71366;SDS011;60030;52.274;8.040;2022-08-25T05:13:52;5.30;;;2.92;;
71366;SDS011;60030;52.274;8.040;2022-08-25T05:16:23;4.47;;;3.22;;
71366;SDS011;60030;52.274;8.040;2022-08-25T05:18:51;6.72;;;3.30;;
71366;SDS011;60030;52.274;8.040;2022-08-25T05:21:21;6.20;;;3.38;;
71366;SDS011;60030;52.274;8.040;2022-08-25T05:23:52;11.68;;;4.05;;
71366;SDS011;60030;52.274;8.040;2022-08-25T05:26:21;5.50;;;3.25;;
71366;SDS011;60030;52.274;8.040;2022-08-25T05:28:49;8.48;;;3.42;;
71366;SDS011;60030;52.274;8.040;2022-08-25T05:31:17;13.38;;;3.55;;
71366;SDS011;60030;52.274;8.040;2022-08-25T05:33:47;5.30;;;3.00;;
71366;SDS011;60030;52.274;8.040;2022-08-25T05:36:14;8.50;;;3.10;;
71366;SDS011;60030;52.274;8.040;2022-08-25T05:38:42;5.75;;;3.15;;
71366;SDS011;60030;52.274;8.040;2022-08-25T05:41:10;4.55;;;3.00;;
71366;SDS011;60030;52.274;8.040;2022-08-25T05:43:40;6.45;;;3.33;;
71366;SDS011;60030;52.274;8.040;2022-08-25T05:46:09;8.30;;;3.20;;
71366;SDS011;60030;52.274;8.040;2022-08-25T05:48:37;6.45;;;2.92;;
71366;SDS011;60030;52.274;8.040;2022-08-25T05:51:06;4.22;;;2.92;;
71366;SDS011;60030;52.274;8.040;2022-08-25T05:53:36;5.93;;;3.38;;
71366;SDS011;60030;52.274;8.040;2022-08-25T05:56:03;4.65;;;2.97;;
71366;SDS011;60030;52.274;8.040;2022-08-25T05:58:31;5.63;;;3.22;;
71366;SDS011;60030;52.274;8.040;2022-08-25T06:00:58;8.70;;;3.42;;
71366;SDS011;60030;52.274;8.040;2022-08-25T06:03:46;7.45;;;4.18;;
71366;SDS011;60030;52.274;8.040;2022-08-25T06:06:14;6.50;;;3.60;;
71366;SDS011;60030;52.274;8.040;2022-08-25T06:08:41;6.07;;;3.33;;
71366;SDS011;60030;52.274;8.040;2022-08-25T06:11:09;3.72;;;3.25;;
71366;SDS011;60030;52.274;8.040;2022-08-25T06:13:36;7.88;;;3.13;;
71366;SDS011;60030;52.274;8.040;2022-08-25T06:16:04;6.45;;;3.53;;
71366;SDS011;60030;52.274;8.040;2022-08-25T06:18:31;4.82;;;3.45;;
71366;SDS011;60030;52.274;8.040;2022-08-25T06:20:58;6.53;;;3.42;;
71366;SDS011;60030;52.274;8.040;2022-08-25T06:23:33;5.75;;;3.80;;
71366;SDS011;60030;52.274;8.040;2022-08-25T06:26:02;6.38;;;2.88;;
71366;SDS011;60030;52.274;8.040;2022-08-25T06:28:30;4.68;;;3.00;;
71366;SDS011;60030;52.274;8.040;2022-08-25T06:30:57;8.73;;;3.13;;
71366;SDS011;60030;52.274;8.040;2022-08-25T06:33:25;4.47;;;2.97;;
71366;SDS011;60030;52.274;8.040;2022-08-25T06:35:52;5.05;;;2.95;;
71366;SDS011;60030;52.274;8.040;2022-08-25T06:38:20;5.97;;;3.25;;
71366;SDS011;60030;52.274;8.040;2022-08-25T06:40:48;5.65;;;3.35;;
71366;SDS011;60030;52.274;8.040;2022-08-25T06:43:16;4.40;;;3.25;;
71366;SDS011;60030;52.274;8.040;2022-08-25T06:45:43;4.70;;;3.25;;
71366;SDS011;60030;52.274;8.040;2022-08-25T06:48:10;4.45;;;2.90;;
71366;SDS011;60030;52.274;8.040;2022-08-25T06:50:38;6.72;;;3.42;;
71366;SDS011;60030;52.274;8.040;2022-08-25T06:53:05;5.85;;;3.38;;
71366;SDS011;60030;52.274;8.040;2022-08-25T06:55:33;6.78;;;3.60;;
71366;SDS011;60030;52.274;8.040;2022-08-25T06:58:02;6.82;;;3.35;;
71366;SDS011;60030;52.274;8.040;2022-08-25T07:00:30;6.45;;;3.78;;
71366;SDS011;60030;52.274;8.040;2022-08-25T07:02:57;6.03;;;3.60;;
71366;SDS011;60030;52.274;8.040;2022-08-25T07:05:25;6.72;;;3.38;;
71366;SDS011;60030;52.274;8.040;2022-08-25T07:07:53;7.32;;;3.78;;
71366;SDS011;60030;52.274;8.040;2022-08-25T07:10:21;6.63;;;3.70;;
71366;SDS011;60030;52.274;8.040;2022-08-25T07:12:48;6.70;;;3.92;;
71366;SDS011;60030;52.274;8.040;2022-08-25T07:15:17;8.85;;;4.30;;
71366;SDS011;60030;52.274;8.040;2022-08-25T07:17:44;3.78;;;3.17;;
71366;SDS011;60030;52.274;8.040;2022-08-25T07:20:11;6.20;;;4.20;;
71366;SDS011;60030;52.274;8.040;2022-08-25T07:22:38;7.82;;;3.50;;
71366;SDS011;60030;52.274;8.040;2022-08-25T07:25:06;7.22;;;3.35;;
71366;SDS011;60030;52.274;8.040;2022-08-25T07:27:35;11.57;;;3.80;;
71366;SDS011;60030;52.274;8.040;2022-08-25T07:30:03;4.65;;;3.40;;
71366;SDS011;60030;52.274;8.040;2022-08-25T07:32:34;5.47;;;3.55;;
71366;SDS011;60030;52.274;8.040;2022-08-25T07:35:01;5.45;;;3.30;;
71366;SDS011;60030;52.274;8.040;2022-08-25T07:37:43;5.40;;;4.00;;
71366;SDS011;60030;52.274;8.040;2022-08-25T07:40:13;6.15;;;3.33;;
71366;SDS011;60030;52.274;8.040;2022-08-25T07:42:42;8.18;;;3.45;;
71366;SDS011;60030;52.274;8.040;2022-08-25T07:45:09;6.70;;;3.88;;
71366;SDS011;60030;52.274;8.040;2022-08-25T07:47:38;8.85;;;3.95;;
71366;SDS011;60030;52.274;8.040;2022-08-25T07:50:06;7.05;;;3.80;;
71366;SDS011;60030;52.274;8.040;2022-08-25T07:52:36;7.70;;;3.60;;
71366;SDS011;60030;52.274;8.040;2022-08-25T07:55:04;6.28;;;4.15;;
71366;SDS011;60030;52.274;8.040;2022-08-25T07:57:32;11.10;;;3.92;;
71366;SDS011;60030;52.274;8.040;2022-08-25T07:59:59;6.93;;;4.05;;
71366;SDS011;60030;52.274;8.040;2022-08-25T08:02:38;8.70;;;5.07;;
71366;SDS011;60030;52.274;8.040;2022-08-25T08:05:07;13.35;;;4.00;;
71366;SDS011;60030;52.274;8.040;2022-08-25T08:07:35;7.82;;;4.10;;
71366;SDS011;60030;52.274;8.040;2022-08-25T08:10:02;5.07;;;3.90;;
71366;SDS011;60030;52.274;8.040;2022-08-25T08:12:30;11.25;;;5.05;;
71366;SDS011;60030;52.274;8.040;2022-08-25T08:14:58;7.95;;;4.70;;
71366;SDS011;60030;52.274;8.040;2022-08-25T08:17:25;7.05;;;5.28;;
71366;SDS011;60030;52.274;8.040;2022-08-25T08:19:54;5.72;;;5.00;;
71366;SDS011;60030;52.274;8.040;2022-08-25T08:22:21;10.00;;;4.60;;
71366;SDS011;60030;52.274;8.040;2022-08-25T08:24:48;8.10;;;4.20;;
71366;SDS011;60030;52.274;8.040;2022-08-25T08:27:15;8.35;;;4.78;;
71366;SDS011;60030;52.274;8.040;2022-08-25T08:29:42;7.07;;;5.07;;
71366;SDS011;60030;52.274;8.040;2022-08-25T08:32:10;11.02;;;5.32;;
71366;SDS011;60030;52.274;8.040;2022-08-25T08:34:38;6.72;;;4.72;;
71366;SDS011;60030;52.274;8.040;2022-08-25T08:37:07;7.78;;;4.57;;
71366;SDS011;60030;52.274;8.040;2022-08-25T08:39:35;9.45;;;4.82;;
71366;SDS011;60030;52.274;8.040;2022-08-25T08:42:06;11.73;;;5.25;;
71366;SDS011;60030;52.274;8.040;2022-08-25T08:47:40;6.75;;;4.18;;
71366;SDS011;60030;52.274;8.040;2022-08-25T08:50:21;6.93;;;4.82;;
71366;SDS011;60030;52.274;8.040;2022-08-25T08:52:56;8.00;;;4.57;;
71366;SDS011;60030;52.274;8.040;2022-08-25T08:55:29;13.45;;;6.00;;
71366;SDS011;60030;52.274;8.040;2022-08-25T08:57:58;8.30;;;5.38;;
71366;SDS011;60030;52.274;8.040;2022-08-25T09:00:29;11.48;;;5.28;;
71366;SDS011;60030;52.274;8.040;2022-08-25T09:03:01;11.88;;;4.70;;
71366;SDS011;60030;52.274;8.040;2022-08-25T09:05:34;8.00;;;5.25;;
71366;SDS011;60030;52.274;8.040;2022-08-25T09:08:12;8.63;;;5.25;;
71366;SDS011;60030;52.274;8.040;2022-08-25T09:10:45;10.55;;;5.20;;
71366;SDS011;60030;52.274;8.040;2022-08-25T09:13:25;12.18;;;5.43;;
71366;SDS011;60030;52.274;8.040;2022-08-25T09:16:05;8.32;;;5.10;;
71366;SDS011;60030;52.274;8.040;2022-08-25T09:19:00;8.85;;;5.60;;
71366;SDS011;60030;52.274;8.040;2022-08-25T09:21:38;6.43;;;4.97;;
71366;SDS011;60030;52.274;8.040;2022-08-25T09:24:19;12.38;;;5.45;;
71366;SDS011;60030;52.274;8.040;2022-08-25T09:27:02;7.88;;;5.47;;
71366;SDS011;60030;52.274;8.040;2022-08-25T09:29:41;9.80;;;5.90;;
71366;SDS011;60030;52.274;8.040;2022-08-25T09:32:22;6.43;;;5.30;;
71366;SDS011;60030;52.274;8.040;2022-08-25T09:34:51;10.57;;;5.47;;
71366;SDS011;60030;52.274;8.040;2022-08-25T09:37:20;9.80;;;5.50;;
71366;SDS011;60030;52.274;8.040;2022-08-25T09:39:50;8.65;;;5.90;;
71366;SDS011;60030;52.274;8.040;2022-08-25T09:42:17;5.65;;;5.15;;
71366;SDS011;60030;52.274;8.040;2022-08-25T09:44:45;8.45;;;5.25;;
71366;SDS011;60030;52.274;8.040;2022-08-25T09:47:14;7.05;;;5.30;;
71366;SDS011;60030;52.274;8.040;2022-08-25T09:49:48;8.27;;;5.25;;
71366;SDS011;60030;52.274;8.040;2022-08-25T09:55:23;6.93;;;4.88;;
71366;SDS011;60030;52.274;8.040;2022-08-25T09:57:55;10.15;;;5.82;;
71366;SDS011;60030;52.274;8.040;2022-08-25T10:00:25;6.88;;;5.18;;
71366;SDS011;60030;52.274;8.040;2022-08-25T10:03:01;7.75;;;6.57;;
71366;SDS011;60030;52.274;8.040;2022-08-25T10:05:31;9.45;;;5.53;;
71366;SDS011;60030;52.274;8.040;2022-08-25T10:08:01;7.82;;;5.30;;
71366;SDS011;60030;52.274;8.040;2022-08-25T10:10:39;8.00;;;5.20;;
71366;SDS011;60030;52.274;8.040;2022-08-25T10:13:14;9.70;;;6.53;;
71366;SDS011;60030;52.274;8.040;2022-08-25T10:15:44;6.75;;;5.93;;
71366;SDS011;60030;52.274;8.040;2022-08-25T10:18:19;8.63;;;5.47;;
71366;SDS011;60030;52.274;8.040;2022-08-25T10:21:01;7.65;;;5.68;;
71366;SDS011;60030;52.274;8.040;2022-08-25T10:23:34;11.75;;;6.18;;
71366;SDS011;60030;52.274;8.040;2022-08-25T10:26:09;8.90;;;5.60;;
71366;SDS011;60030;52.274;8.040;2022-08-25T10:28:46;7.85;;;5.28;;
71366;SDS011;60030;52.274;8.040;2022-08-25T10:31:24;7.80;;;5.72;;
71366;SDS011;60030;52.274;8.040;2022-08-25T10:34:02;7.38;;;5.07;;
71366;SDS011;60030;52.274;8.040;2022-08-25T10:36:40;7.55;;;5.93;;
71366;SDS011;60030;52.274;8.040;2022-08-25T10:39:16;6.20;;;5.13;;
71366;SDS011;60030;52.274;8.040;2022-08-25T10:41:55;7.97;;;5.40;;
71366;SDS011;60030;52.274;8.040;2022-08-25T10:44:31;8.95;;;5.25;;
71366;SDS011;60030;52.274;8.040;2022-08-25T10:47:47;5.70;;;4.88;;
71366;SDS011;60030;52.274;8.040;2022-08-25T10:50:27;5.82;;;5.10;;
71366;SDS011;60030;52.274;8.040;2022-08-25T10:53:06;6.45;;;5.35;;
71366;SDS011;60030;52.274;8.040;2022-08-25T10:55:49;6.45;;;5.07;;
71366;SDS011;60030;52.274;8.040;2022-08-25T10:58:33;6.38;;;5.18;;
71366;SDS011;60030;52.274;8.040;2022-08-25T11:01:17;7.28;;;5.50;;
71366;SDS011;60030;52.274;8.040;2022-08-25T11:03:54;6.70;;;5.20;;
71366;SDS011;60030;52.274;8.040;2022-08-25T11:06:26;6.80;;;6.03;;
71366;SDS011;60030;52.274;8.040;2022-08-25T11:09:03;10.32;;;6.07;;
71366;SDS011;60030;52.274;8.040;2022-08-25T11:11:33;8.82;;;5.43;;
71366;SDS011;60030;52.274;8.040;2022-08-25T11:14:07;9.48;;;5.60;;
71366;SDS011;60030;52.274;8.040;2022-08-25T11:16:38;8.73;;;5.68;;
71366;SDS011;60030;52.274;8.040;2022-08-25T11:19:10;9.10;;;5.13;;
71366;SDS011;60030;52.274;8.040;2022-08-25T11:21:46;7.25;;;5.60;;
71366;SDS011;60030;52.274;8.040;2022-08-25T11:24:25;7.53;;;4.82;;
71366;SDS011;60030;52.274;8.040;2022-08-25T11:27:07;6.38;;;5.00;;
71366;SDS011;60030;52.274;8.040;2022-08-25T11:29:40;9.68;;;5.25;;
71366;SDS011;60030;52.274;8.040;2022-08-25T11:32:11;8.30;;;5.05;;
71366;SDS011;60030;52.274;8.040;2022-08-25T11:34:49;9.45;;;4.90;;
71366;SDS011;60030;52.274;8.040;2022-08-25T11:37:19;7.18;;;5.53;;
71366;SDS011;60030;52.274;8.040;2022-08-25T11:42:43;8.98;;;6.93;;
71366;SDS011;60030;52.274;8.040;2022-08-25T11:45:28;11.02;;;5.90;;
71366;SDS011;60030;52.274;8.040;2022-08-25T11:48:13;9.32;;;5.13;;
71366;SDS011;60030;52.274;8.040;2022-08-25T11:50:55;7.10;;;5.15;;
71366;SDS011;60030;52.274;8.040;2022-08-25T11:53:26;8.30;;;5.65;;
71366;SDS011;60030;52.274;8.040;2022-08-25T11:55:55;10.65;;;5.63;;
71366;SDS011;60030;52.274;8.040;2022-08-25T12:04:36;9.90;;;6.00;;
71366;SDS011;60030;52.274;8.040;2022-08-25T12:10:15;6.65;;;5.93;;
71366;SDS011;60030;52.274;8.040;2022-08-25T12:12:55;7.45;;;5.22;;
71366;SDS011;60030;52.274;8.040;2022-08-25T12:15:27;6.78;;;6.07;;
71366;SDS011;60030;52.274;8.040;2022-08-25T12:18:06;7.35;;;6.00;;
71366;SDS011;60030;52.274;8.040;2022-08-25T12:23:41;7.80;;;7.00;;
71366;SDS011;60030;52.274;8.040;2022-08-25T12:26:16;8.60;;;6.63;;
71366;SDS011;60030;52.274;8.040;2022-08-25T12:28:56;7.95;;;6.45;;
71366;SDS011;60030;52.274;8.040;2022-08-25T12:31:36;9.70;;;6.65;;
71366;SDS011;60030;52.274;8.040;2022-08-25T12:34:40;9.98;;;7.28;;
71366;SDS011;60030;52.274;8.040;2022-08-25T12:37:32;10.90;;;7.25;;
71366;SDS011;60030;52.274;8.040;2022-08-25T12:40:00;7.13;;;5.85;;
71366;SDS011;60030;52.274;8.040;2022-08-25T12:42:30;7.10;;;6.22;;
71366;SDS011;60030;52.274;8.040;2022-08-25T12:45:08;8.25;;;6.80;;
71366;SDS011;60030;52.274;8.040;2022-08-25T12:47:39;7.68;;;6.00;;
71366;SDS011;60030;52.274;8.040;2022-08-25T12:50:27;10.70;;;6.75;;
71366;SDS011;60030;52.274;8.040;2022-08-25T12:53:13;8.80;;;6.45;;
71366;SDS011;60030;52.274;8.040;2022-08-25T12:55:45;10.32;;;6.68;;
71366;SDS011;60030;52.274;8.040;2022-08-25T12:58:15;7.60;;;6.80;;
71366;SDS011;60030;52.274;8.040;2022-08-25T13:01:03;9.10;;;6.32;;
71366;SDS011;60030;52.274;8.040;2022-08-25T13:03:45;9.20;;;6.82;;
71366;SDS011;60030;52.274;8.040;2022-08-25T13:06:32;10.18;;;7.03;;
71366;SDS011;60030;52.274;8.040;2022-08-25T13:12:14;13.65;;;11.90;;
71366;SDS011;60030;52.274;8.040;2022-08-25T13:14:44;15.88;;;12.98;;
71366;SDS011;60030;52.274;8.040;2022-08-25T13:17:23;14.40;;;13.00;;
71366;SDS011;60030;52.274;8.040;2022-08-25T13:22:43;7.00;;;6.13;;
71366;SDS011;60030;52.274;8.040;2022-08-25T13:25:15;7.47;;;6.15;;
71366;SDS011;60030;52.274;8.040;2022-08-25T13:27:48;9.52;;;6.55;;
71366;SDS011;60030;52.274;8.040;2022-08-25T13:30:24;7.35;;;6.57;;
71366;SDS011;60030;52.274;8.040;2022-08-25T13:32:53;7.93;;;6.28;;
71366;SDS011;60030;52.274;8.040;2022-08-25T13:35:22;10.73;;;7.13;;
71366;SDS011;60030;52.274;8.040;2022-08-25T13:37:50;8.13;;;7.07;;
71366;SDS011;60030;52.274;8.040;2022-08-25T13:40:21;9.13;;;6.63;;
71366;SDS011;60030;52.274;8.040;2022-08-25T13:42:52;8.60;;;6.00;;
71366;SDS011;60030;52.274;8.040;2022-08-25T13:45:22;8.73;;;5.53;;
71366;SDS011;60030;52.274;8.040;2022-08-25T13:47:51;6.78;;;5.85;;
71366;SDS011;60030;52.274;8.040;2022-08-25T13:50:31;6.60;;;5.90;;
71366;SDS011;60030;52.274;8.040;2022-08-25T13:53:00;6.88;;;5.57;;
71366;SDS011;60030;52.274;8.040;2022-08-25T13:55:31;10.18;;;6.35;;
71366;SDS011;60030;52.274;8.040;2022-08-25T13:58:03;5.70;;;5.13;;
71366;SDS011;60030;52.274;8.040;2022-08-25T14:00:33;9.75;;;5.88;;
71366;SDS011;60030;52.274;8.040;2022-08-25T14:03:06;9.18;;;6.50;;
71366;SDS011;60030;52.274;8.040;2022-08-25T14:05:35;7.78;;;6.43;;
71366;SDS011;60030;52.274;8.040;2022-08-25T14:08:05;6.72;;;5.95;;
71366;SDS011;60030;52.274;8.040;2022-08-25T14:11:00;9.80;;;6.65;;
71366;SDS011;60030;52.274;8.040;2022-08-25T14:13:33;8.02;;;6.35;;
71366;SDS011;60030;52.274;8.040;2022-08-25T14:16:08;9.98;;;6.75;;
71366;SDS011;60030;52.274;8.040;2022-08-25T14:18:38;8.73;;;6.65;;
71366;SDS011;60030;52.274;8.040;2022-08-25T14:21:12;7.82;;;6.20;;
71366;SDS011;60030;52.274;8.040;2022-08-25T14:23:40;8.00;;;6.22;;
71366;SDS011;60030;52.274;8.040;2022-08-25T14:26:08;7.45;;;6.63;;
71366;SDS011;60030;52.274;8.040;2022-08-25T14:28:36;6.72;;;6.10;;
71366;SDS011;60030;52.274;8.040;2022-08-25T14:31:04;9.43;;;6.57;;
71366;SDS011;60030;52.274;8.040;2022-08-25T14:33:34;8.00;;;6.38;;
71366;SDS011;60030;52.274;8.040;2022-08-25T14:36:05;7.10;;;6.38;;
71366;SDS011;60030;52.274;8.040;2022-08-25T14:38:33;9.93;;;7.18;;
71366;SDS011;60030;52.274;8.040;2022-08-25T14:41:03;10.43;;;6.82;;
71366;SDS011;60030;52.274;8.040;2022-08-25T14:43:31;9.23;;;6.78;;
71366;SDS011;60030;52.274;8.040;2022-08-25T14:45:59;9.63;;;6.97;;
71366;SDS011;60030;52.274;8.040;2022-08-25T14:48:38;7.85;;;7.00;;
71366;SDS011;60030;52.274;8.040;2022-08-25T14:51:08;13.18;;;7.35;;
71366;SDS011;60030;52.274;8.040;2022-08-25T14:53:37;9.07;;;7.07;;
71366;SDS011;60030;52.274;8.040;2022-08-25T14:56:05;10.93;;;7.35;;
71366;SDS011;60030;52.274;8.040;2022-08-25T14:58:32;9.82;;;7.35;;
71366;SDS011;60030;52.274;8.040;2022-08-25T15:01:01;7.43;;;6.40;;
71366;SDS011;60030;52.274;8.040;2022-08-25T15:03:31;7.95;;;6.57;;
71366;SDS011;60030;52.274;8.040;2022-08-25T15:06:01;7.90;;;6.68;;
71366;SDS011;60030;52.274;8.040;2022-08-25T15:08:29;7.60;;;6.45;;
71366;SDS011;60030;52.274;8.040;2022-08-25T15:11:13;13.93;;;7.28;;
71366;SDS011;60030;52.274;8.040;2022-08-25T15:13:41;7.50;;;5.85;;
71366;SDS011;60030;52.274;8.040;2022-08-25T15:16:11;6.55;;;5.95;;
71366;SDS011;60030;52.274;8.040;2022-08-25T15:18:41;9.40;;;6.60;;
71366;SDS011;60030;52.274;8.040;2022-08-25T15:21:09;10.13;;;8.23;;
71366;SDS011;60030;52.274;8.040;2022-08-25T15:23:36;10.35;;;8.68;;
71366;SDS011;60030;52.274;8.040;2022-08-25T15:26:04;9.15;;;8.25;;
71366;SDS011;60030;52.274;8.040;2022-08-25T15:28:33;6.50;;;5.93;;
71366;SDS011;60030;52.274;8.040;2022-08-25T15:31:01;12.10;;;10.93;;
71366;SDS011;60030;52.274;8.040;2022-08-25T15:33:29;10.18;;;7.38;;
71366;SDS011;60030;52.274;8.040;2022-08-25T15:35:56;8.73;;;7.93;;
71366;SDS011;60030;52.274;8.040;2022-08-25T15:38:23;12.25;;;8.05;;
71366;SDS011;60030;52.274;8.040;2022-08-25T15:40:51;8.82;;;7.60;;
71366;SDS011;60030;52.274;8.040;2022-08-25T15:43:18;8.02;;;6.70;;
71366;SDS011;60030;52.274;8.040;2022-08-25T15:45:46;7.47;;;5.70;;
71366;SDS011;60030;52.274;8.040;2022-08-25T15:48:14;12.05;;;6.32;;